Latest Weather Observations for Jandakot

IDW60901

Issued at 5:25 pm WST Wednesday 23 April 2014 (issued every 10 minutes, with the page automatically refreshed every 10 minutes)

About weather observations | Map of Perth area stations | Latest observations for Perth area | Other Formats
Station Details ID: 009172 Name: JANDAKOT AERO Lat: -32.10 Lon: 115.88 Height: 30.0 m
Data from the previous 72 hours. | See also: Recent months at Jandakot
Date/Time
WST
Tmp

°C
App
Tmp
°C
Dew
Point
°C
Rel
Hum
%
Delta-T

°C
Wind Press
QNH
hPa
Press
MSL
hPa
Rain
since
9 am
mm
Dir
 
Spd
km/h
Gust
km/h
Spd
kts
Gust
kts
23/05:00pm 23.0 20.7 11.8 49 6.3 SW 15 20 8 11 1013.7 - 0.0
23/04:30pm 24.2 21.4 11.4 44 7.2 WSW 17 20 9 11 1013.8 - 0.0
23/04:00pm 25.5 23.1 6.8 30 9.8 S 9 17 5 9 1013.9 - 0.0
23/03:30pm 25.6 23.1 6.6 29 9.9 S 9 15 5 8 1013.9 - 0.0
23/03:00pm 25.0 21.3 6.5 30 9.6 S 15 22 8 12 1014.2 1014.1 0.0
23/02:30pm 25.0 21.3 6.2 30 9.7 S 15 22 8 12 1014.3 - 0.0
23/02:00pm 24.9 21.6 6.6 31 9.5 SSE 13 20 7 11 1014.4 - 0.0
23/01:30pm 24.7 21.1 6.6 31 9.4 SSE 15 22 8 12 1014.8 - 0.0
23/01:00pm 24.2 20.3 6.9 33 9.0 SSE 17 24 9 13 1015.3 - 0.0
23/12:30pm 23.5 19.2 6.9 34 8.6 SSE 19 24 10 13 1015.9 - 0.0
23/12:00pm 22.8 19.2 6.6 35 8.3 S 15 28 8 15 1016.4 1016.3 0.0
23/11:30am 22.0 18.1 7.0 38 7.7 SE 17 24 9 13 1016.6 - 0.0
23/11:00am 21.4 18.2 6.9 39 7.4 SE 13 20 7 11 1017.3 - 0.0
23/10:30am 20.0 17.0 7.5 44 6.4 SSE 13 22 7 12 1017.7 - 0.0
23/10:00am 19.1 15.8 8.0 48 5.7 SSE 15 20 8 11 1018.1 - 0.0
23/09:30am 17.8 15.8 8.5 54 4.8 ESE 9 11 5 6 1018.8 - 0.0
23/09:00am 16.1 14.5 8.9 62 3.7 E 7 11 4 6 1019.0 1019.0 0.0
23/08:30am 13.6 11.9 8.2 70 2.7 ESE 7 9 4 5 1019.0 - 0.0
23/08:00am 10.3 9.2 8.5 89 0.9 SE 4 6 2 3 1018.6 - 0.0
23/07:30am 7.7 6.2 6.6 93 0.5 SE 4 6 2 3 1018.3 - 0.0
23/07:00am 6.1 3.6 4.9 92 0.5 E 7 7 4 4 1018.1 - 0.0
23/06:30am 5.8 4.2 4.6 92 0.5 SSE 2 7 1 4 1018.0 - 0.0
23/06:00am 6.9 4.7 5.5 91 0.6 S 6 9 3 5 1018.1 1018.1 0.0
23/05:30am 6.3 5.2 4.9 91 0.6 SSE 0 0 0 0 1018.2 - 0.0
23/05:00am 7.4 6.4 5.8 90 0.7 CALM 0 0 0 0 1018.0 - 0.0
23/04:30am 7.7 5.4 5.9 88 0.8 SSE 7 9 4 5 1017.9 - 0.0
23/04:00am 7.7 5.4 5.9 88 0.8 SSE 7 9 4 5 1017.8 - 0.0
23/03:30am 8.9 7.0 6.7 86 1.0 SSE 6 6 3 3 1018.0 - 0.0
23/03:00am 10.6 8.8 7.9 83 1.3 S 7 9 4 5 1018.2 1018.2 0.0
23/02:30am 12.2 10.1 8.1 76 2.0 SSE 9 11 5 6 1018.3 - 0.0
23/02:00am 12.8 10.0 8.4 74 2.2 S 13 17 7 9 1018.1 - 0.0
23/01:30am 12.0 9.3 8.8 81 1.6 S 13 17 7 9 1018.2 - 0.0
23/01:00am 11.8 9.4 8.8 82 1.5 S 11 13 6 7 1018.1 - 0.0
23/12:30am 12.1 9.8 8.9 81 1.6 S 11 13 6 7 1018.0 - 0.0
23/12:00am 12.5 10.5 8.7 77 1.9 S 9 11 5 6 1018.3 1018.3 0.0
 
Date/Time
WST
Tmp

°C
App
Tmp
°C
Dew
Point
°C
Rel
Hum
%
Delta-T

°C
Wind Press
QNH
hPa
Press
MSL
hPa
Rain
since
9 am
mm
Dir
 
Spd
km/h
Gust
km/h
Spd
kts
Gust
kts
22/11:30pm 13.1 10.7 8.7 74 2.2 S 11 15 6 8 1018.6 - 0.0
22/11:00pm 12.7 10.3 8.7 76 2.0 S 11 13 6 7 1018.8 - 0.0
22/10:30pm 12.9 10.5 8.5 74 2.2 S 11 13 6 7 1019.2 - 0.0
22/10:00pm 13.0 10.5 8.4 73 2.3 SSW 11 11 6 6 1019.2 - 0.0
22/09:30pm 13.7 12.1 8.7 72 2.5 S 7 11 4 6 1019.2 - 0.0
22/09:00pm 14.3 11.9 8.5 68 2.9 S 11 15 6 8 1019.1 1019.1 0.0
22/08:30pm 14.7 12.6 8.3 65 3.2 S 9 11 5 6 1019.0 - 0.0
22/08:00pm 16.0 13.2 8.5 61 3.8 S 13 15 7 8 1019.1 - 0.0
22/07:30pm 16.7 13.8 8.0 56 4.4 SSW 13 17 7 9 1019.1 - 0.0
22/07:00pm 17.1 14.1 7.5 53 4.8 SSW 13 17 7 9 1018.6 - 0.0
22/06:30pm 17.8 14.4 7.5 51 5.2 SSW 15 20 8 11 1017.9 - 0.0
22/06:00pm 18.4 15.0 7.5 49 5.5 SSW 15 22 8 12 1017.6 1017.5 0.0
22/05:30pm 19.6 15.2 6.4 42 6.6 SSW 19 26 10 14 1017.6 - 0.0
22/05:00pm 20.6 15.7 5.1 36 7.6 SW 20 28 11 15 1017.7 - 0.0
22/04:30pm 21.5 16.9 5.7 35 7.9 SW 19 24 10 13 1017.9 - 0.0
22/04:00pm 22.2 17.4 5.6 34 8.3 SW 20 28 11 15 1017.8 - 0.0
22/03:30pm 22.0 17.6 5.0 33 8.4 SSW 17 28 9 15 1017.8 - 0.0
22/03:00pm 22.0 16.8 5.6 34 8.2 WSW 22 32 12 17 1018.0 1018.0 0.0
22/02:30pm 22.4 17.2 5.4 33 8.5 WSW 22 30 12 16 1018.1 - 0.0
22/02:00pm 22.1 16.9 5.7 34 8.2 WSW 22 28 12 15 1018.3 - 0.0
22/01:30pm 22.1 16.6 7.7 39 7.5 W 26 30 14 16 1018.6 - 0.0
22/01:00pm 22.4 17.5 7.1 37 7.9 W 22 28 12 15 1018.8 - 0.0
22/12:30pm 22.4 17.9 6.2 35 8.2 W 19 24 10 13 1019.4 - 0.0
22/12:00pm 22.1 19.1 6.0 35 8.1 W 11 20 6 11 1019.8 1019.8 0.0
22/11:30am 22.3 19.8 4.6 31 8.7 NW 7 15 4 8 1020.1 - 0.0
22/11:00am 21.3 19.0 5.9 36 7.7 W 7 11 4 6 1020.8 - 0.0
22/10:30am 20.5 18.2 5.8 38 7.3 NNE 7 9 4 5 1020.9 - 0.0
22/10:00am 19.9 18.3 6.5 41 6.7 NNE 4 9 2 5 1021.3 - 0.0
22/09:30am 18.4 16.3 6.5 45 5.9 NE 7 11 4 6 1021.6 - 0.0
22/09:00am 17.3 14.8 6.5 49 5.3 ENE 9 13 5 7 1021.7 1021.7 0.0
22/08:30am 15.4 13.6 7.3 58 4.0 E 6 9 3 5 1021.4 - 0.0
22/08:00am 13.1 11.0 6.6 64 3.1 ESE 7 9 4 5 1021.1 - 0.0
22/07:30am 9.8 7.2 5.9 77 1.8 ESE 9 11 5 6 1021.0 - 0.0
22/07:00am 8.2 5.7 5.0 80 1.4 E 7 9 4 5 1020.8 - 0.0
22/06:30am 9.3 6.5 5.3 76 1.8 E 9 13 5 7 1020.7 - 0.0
22/06:00am 9.8 6.3 5.6 75 1.9 ESE 13 15 7 8 1020.4 1020.4 0.0
22/05:30am 9.2 5.6 5.2 76 1.8 ESE 13 17 7 9 1020.4 - 0.0
22/05:00am 9.0 5.4 5.2 77 1.7 SE 13 17 7 9 1020.3 - 0.0
22/04:30am 6.8 4.1 5.4 91 0.6 SE 9 15 5 8 1020.4 - 0.0
22/04:00am 6.5 4.3 5.1 91 0.6 SE 6 7 3 4 1020.2 - 0.0
22/03:30am 6.9 4.6 5.5 91 0.6 SE 7 7 4 4 1020.2 - 0.0
22/03:00am 6.8 3.9 4.7 86 0.9 SE 9 11 5 6 1020.2 1020.2 0.0
22/02:30am 7.1 6.1 5.8 91 0.6 CALM 0 0 0 0 1020.3 - 0.0
22/02:00am 7.3 6.3 5.7 89 0.7 CALM 0 0 0 0 1020.2 - 0.0
22/01:30am 7.8 7.0 6.5 91 0.6 CALM 0 0 0 0 1020.3 - 0.0
22/01:00am 7.9 7.1 6.6 91 0.6 CALM 0 0 0 0 1020.3 - 0.0
22/12:30am 8.0 6.4 6.2 88 0.8 S 4 7 2 4 1020.3 - 0.0
22/12:00am 9.0 7.8 6.6 85 1.1 S 2 6 1 3 1020.5 1020.5 0.0
 
Date/Time
WST
Tmp

°C
App
Tmp
°C
Dew
Point
°C
Rel
Hum
%
Delta-T

°C
Wind Press
QNH
hPa
Press
MSL
hPa
Rain
since
9 am
mm
Dir
 
Spd
km/h
Gust
km/h
Spd
kts
Gust
kts
21/11:30pm 9.5 8.1 7.2 85 1.1 S 4 7 2 4 1020.7 - 0.0
21/11:00pm 10.7 9.3 8.7 87 1.0 S 6 7 3 4 1020.9 - 0.0
21/10:30pm 11.4 9.6 7.9 79 1.7 S 7 7 4 4 1021.0 - 0.0
21/10:00pm 13.4 11.2 9.5 77 2.0 SSW 11 13 6 7 1021.2 - 0.0
21/09:30pm 14.1 12.3 9.4 73 2.4 S 9 11 5 6 1021.3 - 0.0
21/09:00pm 14.8 12.6 9.5 70 2.7 S 11 13 6 7 1021.3 1021.3 0.0
21/08:30pm 15.2 13.4 9.6 69 2.9 S 9 13 5 7 1021.3 - 0.0
21/08:00pm 15.5 13.7 9.5 67 3.1 S 9 11 5 6 1021.1 - 0.0
21/07:30pm 16.2 14.4 9.4 64 3.5 S 9 13 5 7 1020.8 - 0.0
21/07:00pm 17.3 14.7 9.2 59 4.2 S 13 17 7 9 1020.4 - 0.0
21/06:30pm 17.8 14.7 8.9 56 4.6 SSW 15 20 8 11 1019.9 - 0.0
21/06:00pm 18.7 14.6 7.7 48 5.6 SSW 19 26 10 14 1019.5 1019.5 0.0
21/05:30pm 19.7 15.3 7.3 44 6.3 SW 20 30 11 16 1019.1 - 0.0
21/05:00pm 20.5 16.3 7.4 42 6.7 SW 19 26 10 14 1018.9 - 0.0
21/04:30pm 21.0 16.6 7.6 42 6.9 SW 20 28 11 15 1018.9 - 0.0
21/04:00pm 21.1 17.2 9.5 47 6.2 SW 20 28 11 15 1018.8 - 0.0
21/03:30pm 21.7 17.1 8.1 41 7.1 WSW 22 35 12 19 1018.8 - 0.0
21/03:00pm 22.3 19.2 7.4 38 7.7 SW 13 33 7 18 1018.7 1018.7 0.0
21/02:30pm 22.0 18.8 5.0 33 8.4 SW 11 20 6 11 1018.7 - 0.0
21/02:00pm 21.9 17.9 5.1 33 8.3 S 15 22 8 12 1018.7 - 0.0
21/01:30pm 21.6 18.0 4.9 33 8.2 S 13 20 7 11 1018.8 - 0.0
21/01:00pm 21.5 17.9 4.8 33 8.2 SE 13 22 7 12 1018.9 - 0.0
21/12:30pm 21.2 17.7 5.5 36 7.8 S 13 22 7 12 1019.3 - 0.0
21/12:00pm 20.6 16.4 5.9 38 7.3 S 17 26 9 14 1019.5 1019.5 0.0
21/11:30am 20.3 16.1 5.5 38 7.3 SSE 17 28 9 15 1019.9 - 0.0
21/11:00am 20.0 15.6 5.0 37 7.3 S 17 28 9 15 1020.1 - 0.0
21/10:30am 19.4 15.8 6.9 44 6.3 SE 15 20 8 11 1020.2 - 0.0
21/10:00am 19.3 15.8 7.0 44 6.2 SE 15 22 8 12 1020.2 - 0.0
21/09:30am 18.1 14.0 7.9 51 5.2 SE 19 24 10 13 1020.2 - 0.0
21/09:00am 17.3 14.3 9.4 59 4.1 SE 15 20 8 11 1020.3 1020.3 0.0
21/08:30am 15.2 12.8 10.0 71 2.7 SE 13 17 7 9 1020.0 - 0.0
21/08:00am 12.5 11.4 10.6 88 1.0 ESE 7 11 4 6 1019.8 - 0.0
21/07:30am 10.4 9.0 9.4 93 0.5 SE 7 9 4 5 1019.5 - 0.0
21/07:00am 8.7 6.9 7.9 95 0.4 SSE 7 9 4 5 1019.2 - 0.0
21/06:30am 8.2 6.2 7.1 93 0.5 SSE 7 9 4 5 1019.1 - 0.0
21/06:00am 10.2 8.7 9.2 93 0.5 S 7 9 4 5 1018.9 1018.9 0.0
21/05:30am 10.6 8.4 9.4 92 0.6 SSW 11 13 6 7 1018.7 - 0.0
21/05:00am 10.8 9.0 9.6 92 0.6 S 9 13 5 7 1018.4 - 0.0
21/04:30am 11.2 9.1 9.8 91 0.7 S 11 15 6 8 1018.1 - 0.0
21/04:00am 10.9 9.1 9.3 90 0.8 S 9 11 5 6 1017.6 - 0.0
21/03:30am 11.1 9.3 9.3 89 0.9 SSE 9 11 5 6 1017.2 - 0.0
21/03:00am 12.3 10.7 10.2 87 1.1 SSW 9 11 5 6 1017.1 1017.0 0.0
21/02:30am 12.9 11.0 10.4 85 1.3 SSW 11 15 6 8 1017.1 - 0.0
21/02:00am 12.9 11.4 10.4 85 1.3 S 9 13 5 7 1016.9 - 0.0
21/01:30am 13.0 11.5 10.5 85 1.3 SSW 9 13 5 7 1016.9 - 0.0
21/01:00am 13.6 11.7 10.5 81 1.6 S 11 15 6 8 1016.7 - 0.0
21/12:30am 13.8 12.0 10.8 82 1.6 S 11 15 6 8 1016.5 - 0.0
21/12:00am 14.4 12.6 11.0 80 1.8 S 11 15 6 8 1016.3 1016.2 0.0
 
Date/Time
WST
Tmp

°C
App
Tmp
°C
Dew
Point
°C
Rel
Hum
%
Delta-T

°C
Wind Press
QNH
hPa
Press
MSL
hPa
Rain
since
9 am
mm
Dir
 
Spd
km/h
Gust
km/h
Spd
kts
Gust
kts
20/11:30pm 14.9 12.7 10.9 77 2.1 S 13 19 7 10 1016.2 - 0.0
20/11:00pm 15.3 12.8 11.2 76 2.2 S 15 19 8 10 1016.2 - 0.0
20/10:30pm 15.7 13.2 11.0 73 2.5 SSW 15 24 8 13 1015.9 - 0.0
20/10:00pm 16.1 14.0 11.1 72 2.7 S 13 17 7 9 1015.8 - 0.0
20/09:30pm 16.6 14.5 11.2 70 2.9 S 13 17 7 9 1015.6 - 0.0
20/09:00pm 17.0 14.9 11.3 69 3.1 S 13 19 7 10 1015.2 1015.1 0.0
20/08:30pm 17.5 15.2 11.6 68 3.2 S 15 19 8 10 1015.0 - 0.0
20/08:00pm 17.8 16.0 12.0 69 3.2 S 13 17 7 9 1014.7 - 0.0
20/07:30pm 18.0 16.2 12.2 69 3.2 S 13 17 7 9 1014.5 - 0.0
20/07:00pm 18.4 16.5 11.9 66 3.6 SSW 13 20 7 11 1014.4 - 0.0
20/06:30pm 19.1 17.1 11.4 61 4.2 SSW 13 19 7 10 1014.1 - 0.0
20/06:00pm 19.6 16.5 11.6 60 4.4 SSW 19 28 10 15 1013.8 1013.7 0.0
20/05:30pm 20.0 16.6 11.3 57 4.8 SSW 20 28 11 15 1013.7 - 0.0

Latest Capital City Observations: Canberra | Sydney | Melbourne | Brisbane | Adelaide | Perth | Hobart | Darwin

Other Formats:

Comma delimited format used in spreadsheet applications
http://www.bom.gov.au/fwo/IDW60901/IDW60901.94609.axf

JavaScript Object Notation format (JSON) in row-major order
http://www.bom.gov.au/fwo/IDW60901/IDW60901.94609.json